sensor_id;sensor_type;location;lat;lon;timestamp;P1;durP1;ratioP1;P2;durP2;ratioP2
28934;SDS011;16044;52.726;-2.108;2023-08-01T00:02:03;12.82;;;3.22;;
28934;SDS011;16044;52.726;-2.108;2023-08-01T00:04:34;13.95;;;2.75;;
28934;SDS011;16044;52.726;-2.108;2023-08-01T00:07:04;9.60;;;2.88;;
28934;SDS011;16044;52.726;-2.108;2023-08-01T00:09:34;12.82;;;2.90;;
28934;SDS011;16044;52.726;-2.108;2023-08-01T00:12:07;16.55;;;3.30;;
28934;SDS011;16044;52.726;-2.108;2023-08-01T00:14:38;18.98;;;2.90;;
28934;SDS011;16044;52.726;-2.108;2023-08-01T00:17:08;8.98;;;2.47;;
28934;SDS011;16044;52.726;-2.108;2023-08-01T00:19:39;12.48;;;2.92;;
28934;SDS011;16044;52.726;-2.108;2023-08-01T00:22:09;13.27;;;3.35;;
28934;SDS011;16044;52.726;-2.108;2023-08-01T00:24:40;13.07;;;2.92;;
28934;SDS011;16044;52.726;-2.108;2023-08-01T00:27:12;12.38;;;3.10;;
28934;SDS011;16044;52.726;-2.108;2023-08-01T00:29:43;13.15;;;3.03;;
28934;SDS011;16044;52.726;-2.108;2023-08-01T00:32:14;12.80;;;2.53;;
28934;SDS011;16044;52.726;-2.108;2023-08-01T00:34:44;9.88;;;2.78;;
28934;SDS011;16044;52.726;-2.108;2023-08-01T00:37:14;11.40;;;3.10;;
28934;SDS011;16044;52.726;-2.108;2023-08-01T00:39:45;13.70;;;2.70;;
28934;SDS011;16044;52.726;-2.108;2023-08-01T00:42:17;11.95;;;2.40;;
28934;SDS011;16044;52.726;-2.108;2023-08-01T00:44:48;10.90;;;2.95;;
28934;SDS011;16044;52.726;-2.108;2023-08-01T00:47:20;10.10;;;2.70;;
28934;SDS011;16044;52.726;-2.108;2023-08-01T00:49:51;14.25;;;3.00;;
28934;SDS011;16044;52.726;-2.108;2023-08-01T00:52:21;11.80;;;3.10;;
28934;SDS011;16044;52.726;-2.108;2023-08-01T00:54:52;11.25;;;3.08;;
28934;SDS011;16044;52.726;-2.108;2023-08-01T00:57:25;10.25;;;2.60;;
28934;SDS011;16044;52.726;-2.108;2023-08-01T00:59:55;11.32;;;2.50;;
28934;SDS011;16044;52.726;-2.108;2023-08-01T01:02:26;13.23;;;3.17;;
28934;SDS011;16044;52.726;-2.108;2023-08-01T01:04:56;10.57;;;2.60;;
28934;SDS011;16044;52.726;-2.108;2023-08-01T01:07:27;14.70;;;3.08;;
28934;SDS011;16044;52.726;-2.108;2023-08-01T01:09:58;9.55;;;2.50;;
28934;SDS011;16044;52.726;-2.108;2023-08-01T01:12:31;12.60;;;2.80;;
28934;SDS011;16044;52.726;-2.108;2023-08-01T01:15:02;9.48;;;2.70;;
28934;SDS011;16044;52.726;-2.108;2023-08-01T01:17:32;15.38;;;3.05;;
28934;SDS011;16044;52.726;-2.108;2023-08-01T01:20:03;13.75;;;2.92;;
28934;SDS011;16044;52.726;-2.108;2023-08-01T01:22:37;15.32;;;3.10;;
28934;SDS011;16044;52.726;-2.108;2023-08-01T01:25:10;14.38;;;3.38;;
28934;SDS011;16044;52.726;-2.108;2023-08-01T01:27:41;12.57;;;3.03;;
28934;SDS011;16044;52.726;-2.108;2023-08-01T01:30:12;9.50;;;2.40;;
28934;SDS011;16044;52.726;-2.108;2023-08-01T01:32:43;9.73;;;2.70;;
28934;SDS011;16044;52.726;-2.108;2023-08-01T01:35:15;14.35;;;2.63;;
28934;SDS011;16044;52.726;-2.108;2023-08-01T01:37:48;11.68;;;2.78;;
28934;SDS011;16044;52.726;-2.108;2023-08-01T01:40:19;10.00;;;2.70;;
28934;SDS011;16044;52.726;-2.108;2023-08-01T01:42:49;13.27;;;2.25;;
28934;SDS011;16044;52.726;-2.108;2023-08-01T01:45:19;13.73;;;3.03;;
28934;SDS011;16044;52.726;-2.108;2023-08-01T01:47:50;9.55;;;2.63;;
28934;SDS011;16044;52.726;-2.108;2023-08-01T01:50:20;17.25;;;3.05;;
28934;SDS011;16044;52.726;-2.108;2023-08-01T01:52:53;11.82;;;2.58;;
28934;SDS011;16044;52.726;-2.108;2023-08-01T01:55:23;14.98;;;2.70;;
28934;SDS011;16044;52.726;-2.108;2023-08-01T01:57:53;11.40;;;2.58;;
28934;SDS011;16044;52.726;-2.108;2023-08-01T02:00:24;10.15;;;2.90;;
28934;SDS011;16044;52.726;-2.108;2023-08-01T02:02:54;12.32;;;2.83;;
28934;SDS011;16044;52.726;-2.108;2023-08-01T02:05:24;14.90;;;2.97;;
28934;SDS011;16044;52.726;-2.108;2023-08-01T02:07:57;11.98;;;2.83;;
28934;SDS011;16044;52.726;-2.108;2023-08-01T02:10:27;19.42;;;3.08;;
28934;SDS011;16044;52.726;-2.108;2023-08-01T02:12:58;10.35;;;2.60;;
28934;SDS011;16044;52.726;-2.108;2023-08-01T02:15:28;11.77;;;2.47;;
28934;SDS011;16044;52.726;-2.108;2023-08-01T02:17:59;16.23;;;3.15;;
28934;SDS011;16044;52.726;-2.108;2023-08-01T02:20:29;14.65;;;2.75;;
28934;SDS011;16044;52.726;-2.108;2023-08-01T02:23:02;15.27;;;2.88;;
28934;SDS011;16044;52.726;-2.108;2023-08-01T02:25:32;11.50;;;2.70;;
28934;SDS011;16044;52.726;-2.108;2023-08-01T02:28:08;17.17;;;2.38;;
28934;SDS011;16044;52.726;-2.108;2023-08-01T02:30:39;9.98;;;2.35;;
28934;SDS011;16044;52.726;-2.108;2023-08-01T02:33:09;7.90;;;2.30;;
28934;SDS011;16044;52.726;-2.108;2023-08-01T02:35:40;13.15;;;2.30;;
28934;SDS011;16044;52.726;-2.108;2023-08-01T02:38:12;13.45;;;2.80;;
28934;SDS011;16044;52.726;-2.108;2023-08-01T02:40:43;19.58;;;3.13;;
28934;SDS011;16044;52.726;-2.108;2023-08-01T02:43:13;14.73;;;2.25;;
28934;SDS011;16044;52.726;-2.108;2023-08-01T02:45:43;12.65;;;2.40;;
28934;SDS011;16044;52.726;-2.108;2023-08-01T02:48:14;11.80;;;2.47;;
28934;SDS011;16044;52.726;-2.108;2023-08-01T02:50:45;9.45;;;2.00;;
28934;SDS011;16044;52.726;-2.108;2023-08-01T02:53:18;11.05;;;2.28;;
28934;SDS011;16044;52.726;-2.108;2023-08-01T02:55:48;11.38;;;2.33;;
28934;SDS011;16044;52.726;-2.108;2023-08-01T02:58:19;17.25;;;2.60;;
28934;SDS011;16044;52.726;-2.108;2023-08-01T03:00:49;10.90;;;2.42;;
28934;SDS011;16044;52.726;-2.108;2023-08-01T03:03:19;14.13;;;2.50;;
28934;SDS011;16044;52.726;-2.108;2023-08-01T03:05:50;9.95;;;2.45;;
28934;SDS011;16044;52.726;-2.108;2023-08-01T03:08:24;13.38;;;2.40;;
28934;SDS011;16044;52.726;-2.108;2023-08-01T03:10:54;10.55;;;2.50;;
28934;SDS011;16044;52.726;-2.108;2023-08-01T03:13:24;11.68;;;2.70;;
28934;SDS011;16044;52.726;-2.108;2023-08-01T03:15:55;10.68;;;2.35;;
28934;SDS011;16044;52.726;-2.108;2023-08-01T03:18:25;10.60;;;1.98;;
28934;SDS011;16044;52.726;-2.108;2023-08-01T03:20:55;14.05;;;2.55;;
28934;SDS011;16044;52.726;-2.108;2023-08-01T03:23:29;12.52;;;1.90;;
28934;SDS011;16044;52.726;-2.108;2023-08-01T03:25:59;12.38;;;2.30;;
28934;SDS011;16044;52.726;-2.108;2023-08-01T03:28:29;15.05;;;2.28;;
28934;SDS011;16044;52.726;-2.108;2023-08-01T03:31:00;11.55;;;2.60;;
28934;SDS011;16044;52.726;-2.108;2023-08-01T03:33:32;12.77;;;2.10;;
28934;SDS011;16044;52.726;-2.108;2023-08-01T03:36:03;11.52;;;2.33;;
28934;SDS011;16044;52.726;-2.108;2023-08-01T03:38:36;9.82;;;2.40;;
28934;SDS011;16044;52.726;-2.108;2023-08-01T03:41:07;12.40;;;2.10;;
28934;SDS011;16044;52.726;-2.108;2023-08-01T03:43:37;10.95;;;2.20;;
28934;SDS011;16044;52.726;-2.108;2023-08-01T03:46:07;12.60;;;2.58;;
28934;SDS011;16044;52.726;-2.108;2023-08-01T03:48:39;14.10;;;2.08;;
28934;SDS011;16044;52.726;-2.108;2023-08-01T03:51:09;12.10;;;2.50;;
28934;SDS011;16044;52.726;-2.108;2023-08-01T03:53:44;11.32;;;2.20;;
28934;SDS011;16044;52.726;-2.108;2023-08-01T03:56:33;11.90;;;2.47;;
28934;SDS011;16044;52.726;-2.108;2023-08-01T03:59:05;12.32;;;2.28;;
28934;SDS011;16044;52.726;-2.108;2023-08-01T04:01:35;14.90;;;2.70;;
28934;SDS011;16044;52.726;-2.108;2023-08-01T04:04:06;11.45;;;2.47;;
28934;SDS011;16044;52.726;-2.108;2023-08-01T04:06:36;17.02;;;2.40;;
28934;SDS011;16044;52.726;-2.108;2023-08-01T04:09:10;13.40;;;2.20;;
28934;SDS011;16044;52.726;-2.108;2023-08-01T04:11:40;13.70;;;2.42;;
28934;SDS011;16044;52.726;-2.108;2023-08-01T04:14:10;11.02;;;2.38;;
28934;SDS011;16044;52.726;-2.108;2023-08-01T04:16:41;11.75;;;2.38;;
28934;SDS011;16044;52.726;-2.108;2023-08-01T04:19:11;7.93;;;1.85;;
28934;SDS011;16044;52.726;-2.108;2023-08-01T04:21:42;10.00;;;1.92;;
28934;SDS011;16044;52.726;-2.108;2023-08-01T04:24:15;13.40;;;2.50;;
28934;SDS011;16044;52.726;-2.108;2023-08-01T04:26:45;9.75;;;2.15;;
28934;SDS011;16044;52.726;-2.108;2023-08-01T04:29:16;10.85;;;2.00;;
28934;SDS011;16044;52.726;-2.108;2023-08-01T04:31:46;15.38;;;2.38;;
28934;SDS011;16044;52.726;-2.108;2023-08-01T04:34:17;7.88;;;1.85;;
28934;SDS011;16044;52.726;-2.108;2023-08-01T04:36:47;9.45;;;2.20;;
28934;SDS011;16044;52.726;-2.108;2023-08-01T04:39:20;9.98;;;1.98;;
28934;SDS011;16044;52.726;-2.108;2023-08-01T04:41:51;14.88;;;2.15;;
28934;SDS011;16044;52.726;-2.108;2023-08-01T04:44:21;8.70;;;1.95;;
28934;SDS011;16044;52.726;-2.108;2023-08-01T04:46:52;11.63;;;2.00;;
28934;SDS011;16044;52.726;-2.108;2023-08-01T04:49:22;16.42;;;2.60;;
28934;SDS011;16044;52.726;-2.108;2023-08-01T04:51:53;14.55;;;2.30;;
28934;SDS011;16044;52.726;-2.108;2023-08-01T04:54:27;10.27;;;1.92;;
28934;SDS011;16044;52.726;-2.108;2023-08-01T04:56:57;8.32;;;2.10;;
28934;SDS011;16044;52.726;-2.108;2023-08-01T04:59:28;11.52;;;2.38;;
28934;SDS011;16044;52.726;-2.108;2023-08-01T05:01:58;10.95;;;2.42;;
28934;SDS011;16044;52.726;-2.108;2023-08-01T05:04:28;10.90;;;2.15;;
28934;SDS011;16044;52.726;-2.108;2023-08-01T05:06:59;17.02;;;2.60;;
28934;SDS011;16044;52.726;-2.108;2023-08-01T05:09:32;10.25;;;1.83;;
28934;SDS011;16044;52.726;-2.108;2023-08-01T05:12:03;13.25;;;2.40;;
28934;SDS011;16044;52.726;-2.108;2023-08-01T05:14:35;11.35;;;1.88;;
28934;SDS011;16044;52.726;-2.108;2023-08-01T05:17:06;9.25;;;2.25;;
28934;SDS011;16044;52.726;-2.108;2023-08-01T05:19:36;10.15;;;2.00;;
28934;SDS011;16044;52.726;-2.108;2023-08-01T05:22:06;10.25;;;2.10;;
28934;SDS011;16044;52.726;-2.108;2023-08-01T05:24:39;11.07;;;2.08;;
28934;SDS011;16044;52.726;-2.108;2023-08-01T05:27:09;5.50;;;1.52;;
28934;SDS011;16044;52.726;-2.108;2023-08-01T05:29:40;7.65;;;1.67;;
28934;SDS011;16044;52.726;-2.108;2023-08-01T05:32:10;13.10;;;1.95;;
28934;SDS011;16044;52.726;-2.108;2023-08-01T05:34:41;7.53;;;1.88;;
28934;SDS011;16044;52.726;-2.108;2023-08-01T05:37:11;8.75;;;2.03;;
28934;SDS011;16044;52.726;-2.108;2023-08-01T05:39:44;10.43;;;1.90;;
28934;SDS011;16044;52.726;-2.108;2023-08-01T05:42:14;9.55;;;1.88;;
28934;SDS011;16044;52.726;-2.108;2023-08-01T05:44:44;9.95;;;1.95;;
28934;SDS011;16044;52.726;-2.108;2023-08-01T05:47:15;10.45;;;1.80;;
28934;SDS011;16044;52.726;-2.108;2023-08-01T05:49:45;11.13;;;2.00;;
28934;SDS011;16044;52.726;-2.108;2023-08-01T05:52:15;11.30;;;1.80;;
28934;SDS011;16044;52.726;-2.108;2023-08-01T05:54:48;7.00;;;1.90;;
28934;SDS011;16044;52.726;-2.108;2023-08-01T05:57:18;9.13;;;2.20;;
28934;SDS011;16044;52.726;-2.108;2023-08-01T05:59:49;9.23;;;2.15;;
28934;SDS011;16044;52.726;-2.108;2023-08-01T06:02:20;7.55;;;1.70;;
28934;SDS011;16044;52.726;-2.108;2023-08-01T06:04:50;10.07;;;2.05;;
28934;SDS011;16044;52.726;-2.108;2023-08-01T06:07:20;16.27;;;2.28;;
28934;SDS011;16044;52.726;-2.108;2023-08-01T06:09:53;9.90;;;1.90;;
28934;SDS011;16044;52.726;-2.108;2023-08-01T06:12:23;11.23;;;2.58;;
28934;SDS011;16044;52.726;-2.108;2023-08-01T06:14:55;10.02;;;2.20;;
28934;SDS011;16044;52.726;-2.108;2023-08-01T06:17:25;10.85;;;1.90;;
28934;SDS011;16044;52.726;-2.108;2023-08-01T06:19:56;13.23;;;2.05;;
28934;SDS011;16044;52.726;-2.108;2023-08-01T06:22:26;10.02;;;2.00;;
28934;SDS011;16044;52.726;-2.108;2023-08-01T06:24:59;9.23;;;1.63;;
28934;SDS011;16044;52.726;-2.108;2023-08-01T06:27:30;8.23;;;1.90;;
28934;SDS011;16044;52.726;-2.108;2023-08-01T06:30:00;14.95;;;2.80;;
28934;SDS011;16044;52.726;-2.108;2023-08-01T06:32:31;9.95;;;1.65;;
28934;SDS011;16044;52.726;-2.108;2023-08-01T06:35:01;10.73;;;1.80;;
28934;SDS011;16044;52.726;-2.108;2023-08-01T06:37:31;11.63;;;2.15;;
28934;SDS011;16044;52.726;-2.108;2023-08-01T06:40:05;8.30;;;1.95;;
28934;SDS011;16044;52.726;-2.108;2023-08-01T06:45:07;11.95;;;1.55;;
28934;SDS011;16044;52.726;-2.108;2023-08-01T06:47:38;9.32;;;1.83;;
28934;SDS011;16044;52.726;-2.108;2023-08-01T06:50:09;7.15;;;1.63;;
28934;SDS011;16044;52.726;-2.108;2023-08-01T06:52:40;10.85;;;2.03;;
28934;SDS011;16044;52.726;-2.108;2023-08-01T06:55:12;9.88;;;2.00;;
28934;SDS011;16044;52.726;-2.108;2023-08-01T06:57:43;7.32;;;1.55;;
28934;SDS011;16044;52.726;-2.108;2023-08-01T07:00:14;8.13;;;1.80;;
28934;SDS011;16044;52.726;-2.108;2023-08-01T07:02:44;15.07;;;2.42;;
28934;SDS011;16044;52.726;-2.108;2023-08-01T07:05:15;8.30;;;1.88;;
28934;SDS011;16044;52.726;-2.108;2023-08-01T07:07:46;8.88;;;1.90;;
28934;SDS011;16044;52.726;-2.108;2023-08-01T07:10:18;11.20;;;2.08;;
28934;SDS011;16044;52.726;-2.108;2023-08-01T07:12:49;11.65;;;1.88;;
28934;SDS011;16044;52.726;-2.108;2023-08-01T07:15:19;12.20;;;2.40;;
28934;SDS011;16044;52.726;-2.108;2023-08-01T07:17:49;12.88;;;2.20;;
28934;SDS011;16044;52.726;-2.108;2023-08-01T07:20:20;8.27;;;2.03;;
28934;SDS011;16044;52.726;-2.108;2023-08-01T07:22:50;10.55;;;1.90;;
28934;SDS011;16044;52.726;-2.108;2023-08-01T07:25:23;10.85;;;1.98;;
28934;SDS011;16044;52.726;-2.108;2023-08-01T07:27:53;9.02;;;2.10;;
28934;SDS011;16044;52.726;-2.108;2023-08-01T07:30:24;14.07;;;2.00;;
28934;SDS011;16044;52.726;-2.108;2023-08-01T07:32:55;9.77;;;1.90;;
28934;SDS011;16044;52.726;-2.108;2023-08-01T07:35:26;11.40;;;2.05;;
28934;SDS011;16044;52.726;-2.108;2023-08-01T07:37:57;10.15;;;2.00;;
28934;SDS011;16044;52.726;-2.108;2023-08-01T07:40:30;8.40;;;2.00;;
28934;SDS011;16044;52.726;-2.108;2023-08-01T07:43:00;11.73;;;1.90;;
28934;SDS011;16044;52.726;-2.108;2023-08-01T07:45:32;8.10;;;2.00;;
28934;SDS011;16044;52.726;-2.108;2023-08-01T07:48:04;10.25;;;2.15;;
28934;SDS011;16044;52.726;-2.108;2023-08-01T07:50:34;13.98;;;2.42;;
28934;SDS011;16044;52.726;-2.108;2023-08-01T07:53:04;11.23;;;1.88;;
28934;SDS011;16044;52.726;-2.108;2023-08-01T07:55:37;11.38;;;2.03;;
28934;SDS011;16044;52.726;-2.108;2023-08-01T07:58:08;10.98;;;1.85;;
28934;SDS011;16044;52.726;-2.108;2023-08-01T08:00:39;7.72;;;1.83;;
28934;SDS011;16044;52.726;-2.108;2023-08-01T08:03:09;9.43;;;1.80;;
28934;SDS011;16044;52.726;-2.108;2023-08-01T08:05:39;11.30;;;2.33;;
28934;SDS011;16044;52.726;-2.108;2023-08-01T08:08:09;8.63;;;1.80;;
28934;SDS011;16044;52.726;-2.108;2023-08-01T08:10:42;9.68;;;1.60;;
28934;SDS011;16044;52.726;-2.108;2023-08-01T08:13:13;12.07;;;2.35;;
28934;SDS011;16044;52.726;-2.108;2023-08-01T08:15:43;8.75;;;1.75;;
28934;SDS011;16044;52.726;-2.108;2023-08-01T08:18:13;8.90;;;1.60;;
28934;SDS011;16044;52.726;-2.108;2023-08-01T08:20:46;9.60;;;2.00;;
28934;SDS011;16044;52.726;-2.108;2023-08-01T08:23:16;10.93;;;1.52;;
28934;SDS011;16044;52.726;-2.108;2023-08-01T08:25:49;9.98;;;1.85;;
28934;SDS011;16044;52.726;-2.108;2023-08-01T08:28:26;7.07;;;1.80;;
28934;SDS011;16044;52.726;-2.108;2023-08-01T08:30:59;8.13;;;1.90;;
28934;SDS011;16044;52.726;-2.108;2023-08-01T08:33:31;9.68;;;1.77;;
28934;SDS011;16044;52.726;-2.108;2023-08-01T08:36:01;8.57;;;2.03;;
28934;SDS011;16044;52.726;-2.108;2023-08-01T08:38:32;9.70;;;1.58;;
28934;SDS011;16044;52.726;-2.108;2023-08-01T08:41:08;6.38;;;1.98;;
28934;SDS011;16044;52.726;-2.108;2023-08-01T08:43:40;7.13;;;1.48;;
28934;SDS011;16044;52.726;-2.108;2023-08-01T08:46:12;10.95;;;1.60;;
28934;SDS011;16044;52.726;-2.108;2023-08-01T08:48:45;7.10;;;1.63;;
28934;SDS011;16044;52.726;-2.108;2023-08-01T08:51:16;10.85;;;1.65;;
28934;SDS011;16044;52.726;-2.108;2023-08-01T08:53:47;10.15;;;1.65;;
28934;SDS011;16044;52.726;-2.108;2023-08-01T08:56:24;8.67;;;1.67;;
28934;SDS011;16044;52.726;-2.108;2023-08-01T08:58:55;7.30;;;1.60;;
28934;SDS011;16044;52.726;-2.108;2023-08-01T09:01:26;7.40;;;1.65;;
28934;SDS011;16044;52.726;-2.108;2023-08-01T09:03:58;10.68;;;1.88;;
28934;SDS011;16044;52.726;-2.108;2023-08-01T09:06:28;7.03;;;1.70;;
28934;SDS011;16044;52.726;-2.108;2023-08-01T09:09:03;6.07;;;1.33;;
28934;SDS011;16044;52.726;-2.108;2023-08-01T09:11:46;8.05;;;1.80;;
28934;SDS011;16044;52.726;-2.108;2023-08-01T09:14:19;8.43;;;1.80;;
28934;SDS011;16044;52.726;-2.108;2023-08-01T09:16:49;6.20;;;1.40;;
28934;SDS011;16044;52.726;-2.108;2023-08-01T09:19:21;7.47;;;1.60;;
28934;SDS011;16044;52.726;-2.108;2023-08-01T09:21:54;4.10;;;1.10;;
28934;SDS011;16044;52.726;-2.108;2023-08-01T09:24:24;7.70;;;1.70;;
28934;SDS011;16044;52.726;-2.108;2023-08-01T09:27:01;8.48;;;1.40;;
28934;SDS011;16044;52.726;-2.108;2023-08-01T09:29:35;7.35;;;1.50;;
28934;SDS011;16044;52.726;-2.108;2023-08-01T09:32:11;5.50;;;1.55;;
28934;SDS011;16044;52.726;-2.108;2023-08-01T09:34:43;9.43;;;1.60;;
28934;SDS011;16044;52.726;-2.108;2023-08-01T09:37:13;8.38;;;1.38;;
28934;SDS011;16044;52.726;-2.108;2023-08-01T09:39:52;5.80;;;1.83;;
28934;SDS011;16044;52.726;-2.108;2023-08-01T09:42:27;8.88;;;1.55;;
28934;SDS011;16044;52.726;-2.108;2023-08-01T09:45:17;4.82;;;1.23;;
28934;SDS011;16044;52.726;-2.108;2023-08-01T09:47:48;5.20;;;1.20;;
28934;SDS011;16044;52.726;-2.108;2023-08-01T09:50:22;6.13;;;1.10;;
28934;SDS011;16044;52.726;-2.108;2023-08-01T09:55:27;4.32;;;1.23;;
28934;SDS011;16044;52.726;-2.108;2023-08-01T09:58:04;5.47;;;1.20;;
28934;SDS011;16044;52.726;-2.108;2023-08-01T10:00:37;3.92;;;1.23;;
28934;SDS011;16044;52.726;-2.108;2023-08-01T10:03:07;5.72;;;1.17;;
28934;SDS011;16044;52.726;-2.108;2023-08-01T10:05:38;5.38;;;1.33;;
28934;SDS011;16044;52.726;-2.108;2023-08-01T10:08:10;5.38;;;1.50;;
28934;SDS011;16044;52.726;-2.108;2023-08-01T10:10:42;7.40;;;1.27;;
28934;SDS011;16044;52.726;-2.108;2023-08-01T10:13:16;5.95;;;1.27;;
28934;SDS011;16044;52.726;-2.108;2023-08-01T10:15:47;6.85;;;1.63;;
28934;SDS011;16044;52.726;-2.108;2023-08-01T10:18:17;4.90;;;1.35;;
28934;SDS011;16044;52.726;-2.108;2023-08-01T10:20:48;4.97;;;1.20;;
28934;SDS011;16044;52.726;-2.108;2023-08-01T10:23:19;3.55;;;1.15;;
28934;SDS011;16044;52.726;-2.108;2023-08-01T10:25:50;6.32;;;1.40;;
28934;SDS011;16044;52.726;-2.108;2023-08-01T10:28:33;5.85;;;1.23;;
28934;SDS011;16044;52.726;-2.108;2023-08-01T10:31:08;5.40;;;1.33;;
28934;SDS011;16044;52.726;-2.108;2023-08-01T10:36:14;6.53;;;1.58;;
28934;SDS011;16044;52.726;-2.108;2023-08-01T10:38:46;4.45;;;1.02;;
28934;SDS011;16044;52.726;-2.108;2023-08-01T10:41:19;3.97;;;1.10;;
28934;SDS011;16044;52.726;-2.108;2023-08-01T10:44:09;3.63;;;1.08;;
28934;SDS011;16044;52.726;-2.108;2023-08-01T10:46:47;5.82;;;1.05;;
28934;SDS011;16044;52.726;-2.108;2023-08-01T10:49:20;4.85;;;1.10;;
28934;SDS011;16044;52.726;-2.108;2023-08-01T10:52:04;5.93;;;0.93;;
28934;SDS011;16044;52.726;-2.108;2023-08-01T10:54:46;4.47;;;1.00;;
28934;SDS011;16044;52.726;-2.108;2023-08-01T10:57:17;5.25;;;0.80;;
28934;SDS011;16044;52.726;-2.108;2023-08-01T10:59:50;4.60;;;1.00;;
28934;SDS011;16044;52.726;-2.108;2023-08-01T11:02:22;6.70;;;0.93;;
28934;SDS011;16044;52.726;-2.108;2023-08-01T11:04:55;5.40;;;1.20;;
28934;SDS011;16044;52.726;-2.108;2023-08-01T11:10:04;5.63;;;1.00;;
28934;SDS011;16044;52.726;-2.108;2023-08-01T11:12:37;4.57;;;1.10;;
28934;SDS011;16044;52.726;-2.108;2023-08-01T11:15:12;4.38;;;1.20;;
28934;SDS011;16044;52.726;-2.108;2023-08-01T11:17:46;3.40;;;0.90;;
28934;SDS011;16044;52.726;-2.108;2023-08-01T11:20:18;5.50;;;1.17;;
28934;SDS011;16044;52.726;-2.108;2023-08-01T11:22:51;5.80;;;1.00;;
28934;SDS011;16044;52.726;-2.108;2023-08-01T11:25:31;8.15;;;1.50;;
28934;SDS011;16044;52.726;-2.108;2023-08-01T11:28:05;7.30;;;1.17;;
28934;SDS011;16044;52.726;-2.108;2023-08-01T11:30:39;5.07;;;1.10;;
28934;SDS011;16044;52.726;-2.108;2023-08-01T11:33:14;3.65;;;1.02;;
28934;SDS011;16044;52.726;-2.108;2023-08-01T11:35:44;6.90;;;1.20;;
28934;SDS011;16044;52.726;-2.108;2023-08-01T11:38:15;4.40;;;1.20;;
28934;SDS011;16044;52.726;-2.108;2023-08-01T11:40:45;7.25;;;1.63;;
28934;SDS011;16044;52.726;-2.108;2023-08-01T11:43:17;5.57;;;1.40;;
28934;SDS011;16044;52.726;-2.108;2023-08-01T11:45:51;5.18;;;1.10;;
28934;SDS011;16044;52.726;-2.108;2023-08-01T11:48:25;6.05;;;1.48;;
28934;SDS011;16044;52.726;-2.108;2023-08-01T11:50:56;5.75;;;1.40;;
28934;SDS011;16044;52.726;-2.108;2023-08-01T11:53:27;4.38;;;1.15;;
28934;SDS011;16044;52.726;-2.108;2023-08-01T11:56:05;4.72;;;1.00;;
28934;SDS011;16044;52.726;-2.108;2023-08-01T11:58:35;3.65;;;0.90;;
28934;SDS011;16044;52.726;-2.108;2023-08-01T12:03:44;3.17;;;0.82;;
28934;SDS011;16044;52.726;-2.108;2023-08-01T12:06:16;5.63;;;1.10;;
28934;SDS011;16044;52.726;-2.108;2023-08-01T12:08:48;3.20;;;0.93;;
28934;SDS011;16044;52.726;-2.108;2023-08-01T12:11:22;5.00;;;0.80;;
28934;SDS011;16044;52.726;-2.108;2023-08-01T12:14:04;4.97;;;1.15;;
28934;SDS011;16044;52.726;-2.108;2023-08-01T12:16:39;5.55;;;0.90;;
28934;SDS011;16044;52.726;-2.108;2023-08-01T12:19:16;2.72;;;1.02;;
28934;SDS011;16044;52.726;-2.108;2023-08-01T12:21:47;5.65;;;1.10;;
28934;SDS011;16044;52.726;-2.108;2023-08-01T12:24:18;3.95;;;0.80;;
28934;SDS011;16044;52.726;-2.108;2023-08-01T12:26:49;5.10;;;1.00;;
28934;SDS011;16044;52.726;-2.108;2023-08-01T12:29:22;4.40;;;1.05;;
28934;SDS011;16044;52.726;-2.108;2023-08-01T12:31:55;3.70;;;0.90;;
28934;SDS011;16044;52.726;-2.108;2023-08-01T12:34:25;2.65;;;0.95;;
28934;SDS011;16044;52.726;-2.108;2023-08-01T12:36:55;3.70;;;0.73;;
28934;SDS011;16044;52.726;-2.108;2023-08-01T12:39:26;4.50;;;0.80;;
28934;SDS011;16044;52.726;-2.108;2023-08-01T12:41:56;4.05;;;0.70;;
28934;SDS011;16044;52.726;-2.108;2023-08-01T12:44:26;2.72;;;0.77;;
28934;SDS011;16044;52.726;-2.108;2023-08-01T12:46:59;3.10;;;1.00;;
28934;SDS011;16044;52.726;-2.108;2023-08-01T12:49:30;3.20;;;0.77;;
28934;SDS011;16044;52.726;-2.108;2023-08-01T12:52:02;3.60;;;0.77;;
28934;SDS011;16044;52.726;-2.108;2023-08-01T12:54:33;5.95;;;0.88;;
28934;SDS011;16044;52.726;-2.108;2023-08-01T12:57:04;3.67;;;1.17;;
28934;SDS011;16044;52.726;-2.108;2023-08-01T12:59:35;3.72;;;1.00;;
28934;SDS011;16044;52.726;-2.108;2023-08-01T13:02:08;5.38;;;1.00;;
28934;SDS011;16044;52.726;-2.108;2023-08-01T13:04:38;2.90;;;0.90;;
28934;SDS011;16044;52.726;-2.108;2023-08-01T13:07:08;4.82;;;1.00;;
28934;SDS011;16044;52.726;-2.108;2023-08-01T13:09:39;8.15;;;1.23;;
28934;SDS011;16044;52.726;-2.108;2023-08-01T13:12:09;6.72;;;1.30;;
28934;SDS011;16044;52.726;-2.108;2023-08-01T13:14:39;4.68;;;1.00;;
28934;SDS011;16044;52.726;-2.108;2023-08-01T13:17:12;4.03;;;1.00;;
28934;SDS011;16044;52.726;-2.108;2023-08-01T13:19:43;3.90;;;1.08;;
28934;SDS011;16044;52.726;-2.108;2023-08-01T13:22:13;4.28;;;0.90;;
28934;SDS011;16044;52.726;-2.108;2023-08-01T13:24:44;4.22;;;1.20;;
28934;SDS011;16044;52.726;-2.108;2023-08-01T13:27:15;6.20;;;1.25;;
28934;SDS011;16044;52.726;-2.108;2023-08-01T13:29:46;5.85;;;1.25;;
28934;SDS011;16044;52.726;-2.108;2023-08-01T13:32:21;5.43;;;1.20;;
28934;SDS011;16044;52.726;-2.108;2023-08-01T13:34:51;5.38;;;1.60;;
28934;SDS011;16044;52.726;-2.108;2023-08-01T13:37:22;5.28;;;1.40;;
28934;SDS011;16044;52.726;-2.108;2023-08-01T13:39:52;8.02;;;1.33;;
28934;SDS011;16044;52.726;-2.108;2023-08-01T13:42:22;7.00;;;1.20;;
28934;SDS011;16044;52.726;-2.108;2023-08-01T13:44:53;4.95;;;1.20;;
28934;SDS011;16044;52.726;-2.108;2023-08-01T13:47:26;4.78;;;1.23;;
28934;SDS011;16044;52.726;-2.108;2023-08-01T13:49:57;3.45;;;0.90;;
28934;SDS011;16044;52.726;-2.108;2023-08-01T13:52:28;4.20;;;1.20;;
28934;SDS011;16044;52.726;-2.108;2023-08-01T13:54:58;5.80;;;1.02;;
28934;SDS011;16044;52.726;-2.108;2023-08-01T13:57:29;6.38;;;1.05;;
28934;SDS011;16044;52.726;-2.108;2023-08-01T13:59:59;4.25;;;0.98;;
28934;SDS011;16044;52.726;-2.108;2023-08-01T14:02:41;6.65;;;1.40;;
28934;SDS011;16044;52.726;-2.108;2023-08-01T14:05:12;3.95;;;0.93;;
28934;SDS011;16044;52.726;-2.108;2023-08-01T14:07:42;5.00;;;1.13;;
28934;SDS011;16044;52.726;-2.108;2023-08-01T14:10:12;2.92;;;0.80;;
28934;SDS011;16044;52.726;-2.108;2023-08-01T14:12:44;4.78;;;1.00;;
28934;SDS011;16044;52.726;-2.108;2023-08-01T14:15:14;5.90;;;1.42;;
28934;SDS011;16044;52.726;-2.108;2023-08-01T14:17:47;5.38;;;1.20;;
28934;SDS011;16044;52.726;-2.108;2023-08-01T14:20:19;5.18;;;1.17;;
28934;SDS011;16044;52.726;-2.108;2023-08-01T14:22:50;3.10;;;1.00;;
28934;SDS011;16044;52.726;-2.108;2023-08-01T14:25:20;3.92;;;1.00;;
28934;SDS011;16044;52.726;-2.108;2023-08-01T14:27:50;3.20;;;1.05;;
28934;SDS011;16044;52.726;-2.108;2023-08-01T14:30:21;4.28;;;0.95;;
28934;SDS011;16044;52.726;-2.108;2023-08-01T14:32:54;3.83;;;0.80;;
28934;SDS011;16044;52.726;-2.108;2023-08-01T14:35:29;3.70;;;1.10;;
28934;SDS011;16044;52.726;-2.108;2023-08-01T14:38:00;4.72;;;0.82;;
28934;SDS011;16044;52.726;-2.108;2023-08-01T14:40:31;3.50;;;0.90;;
28934;SDS011;16044;52.726;-2.108;2023-08-01T14:43:08;3.20;;;0.82;;
28934;SDS011;16044;52.726;-2.108;2023-08-01T14:45:39;3.22;;;0.80;;
28934;SDS011;16044;52.726;-2.108;2023-08-01T14:48:12;3.80;;;1.05;;
28934;SDS011;16044;52.726;-2.108;2023-08-01T14:50:43;3.25;;;0.88;;
28934;SDS011;16044;52.726;-2.108;2023-08-01T14:53:14;5.55;;;1.30;;
28934;SDS011;16044;52.726;-2.108;2023-08-01T14:55:45;3.47;;;1.10;;
28934;SDS011;16044;52.726;-2.108;2023-08-01T14:58:15;3.47;;;0.90;;
28934;SDS011;16044;52.726;-2.108;2023-08-01T15:00:45;3.60;;;1.00;;
28934;SDS011;16044;52.726;-2.108;2023-08-01T15:03:19;5.55;;;1.10;;
28934;SDS011;16044;52.726;-2.108;2023-08-01T15:05:49;4.45;;;0.98;;
28934;SDS011;16044;52.726;-2.108;2023-08-01T15:08:19;4.18;;;0.90;;